Time;durP1;ratioP1;P1;durP2;ratioP2;P2;SDS_P1;SDS_P2;PMS_P1;PMS_P2;Temp;Humidity;BMP_temperature;BMP_pressure;BME280_temperature;BME280_humidity;BME280_pressure;Samples;Min_cycle;Max_cycle;Signal;HPM_P1;HPM_P2
2022/06/04 00:00:35;;;;;;;5.40;2.42;;;;;;;17.58;44.82;100185.81;5052081;28;20056;-62
2022/06/04 00:03:02;;;;;;;4.88;2.10;;;;;;;17.56;44.92;100181.56;5053620;28;20053;-62
2022/06/04 00:05:32;;;;;;;5.18;2.38;;;;;;;17.53;45.53;100187.16;5052355;28;20049;-61
2022/06/04 00:08:01;;;;;;;3.70;2.17;;;;;;;17.50;45.27;100174.09;5053467;28;20439;-61
2022/06/04 00:16:04;;;;;;;5.30;2.80;;;;;;;17.37;45.61;100168.88;5053481;28;20060;-62
2022/06/04 00:18:31;;;;;;;5.63;2.95;;;;;;;17.34;45.49;100169.97;5052087;28;20452;-63
2022/06/04 00:20:58;;;;;;;6.45;2.42;;;;;;;17.30;45.56;100160.53;5052988;28;20126;-61
2022/06/04 00:23:26;;;;;;;4.60;2.78;;;;;;;17.23;45.76;100164.66;5051986;28;20539;-61
2022/06/04 00:25:55;;;;;;;5.72;2.92;;;;;;;17.15;46.19;100162.59;5051820;28;20053;-63
2022/06/04 00:28:24;;;;;;;4.50;2.83;;;;;;;17.09;46.19;100160.44;5052932;28;20056;-62
2022/06/04 00:30:52;;;;;;;5.00;2.58;;;;;;;17.03;46.23;100162.56;5052919;28;20060;-61
2022/06/04 00:33:18;;;;;;;4.93;3.13;;;;;;;16.98;46.46;100162.09;5052917;28;20106;-62
2022/06/04 00:35:48;;;;;;;6.20;3.50;;;;;;;16.94;46.78;100169.44;5053076;28;20044;-64
2022/06/04 00:38:17;;;;;;;6.03;3.03;;;;;;;16.93;47.00;100165.09;5051702;28;20060;-62
2022/06/04 00:41:03;;;;;;;4.63;2.90;;;;;;;16.91;46.75;100167.03;5051605;28;20067;-62
2022/06/04 00:43:29;;;;;;;4.07;2.88;;;;;;;16.90;46.64;100172.47;5052822;28;20053;-63
2022/06/04 00:46:17;;;;;;;6.32;2.95;;;;;;;16.89;47.15;100184.91;5052765;28;20079;-63
2022/06/04 00:48:44;;;;;;;4.60;2.80;;;;;;;16.88;46.68;100169.06;5052576;28;20151;-62
2022/06/04 00:51:11;;;;;;;5.22;3.35;;;;;;;16.89;46.86;100174.28;5052385;28;20056;-62
2022/06/04 00:53:39;;;;;;;3.15;2.70;;;;;;;16.87;46.85;100167.38;5051427;28;20056;-64
2022/06/04 00:56:34;;;;;;;4.32;3.15;;;;;;;16.84;47.33;100164.94;5051223;28;20567;-64
2022/06/04 00:59:20;;;;;;;7.22;2.92;;;;;;;16.82;47.09;100166.91;5042225;28;20587;-61
2022/06/04 01:01:59;;;;;;;4.45;2.80;;;;;;;16.84;46.67;100162.28;5051122;28;20421;-61
2022/06/04 01:04:50;;;;;;;3.97;2.85;;;;;;;16.77;47.14;100165.44;5052562;28;20061;-62
2022/06/04 01:07:24;;;;;;;4.88;2.63;;;;;;;16.74;47.15;100157.69;5052471;28;20501;-61
2022/06/04 01:10:02;;;;;;;4.22;2.90;;;;;;;16.68;47.34;100160.84;5051365;28;20057;-61
2022/06/04 01:13:14;;;;;;;5.25;3.08;;;;;;;16.61;46.42;100162.25;5052150;28;20055;-61
2022/06/04 01:16:02;;;;;;;4.22;2.85;;;;;;;16.53;47.31;100162.84;4970935;28;20058;-62
2022/06/04 01:19:06;;;;;;;4.72;3.10;;;;;;;16.46;46.97;100166.91;4970835;28;20496;-60
2022/06/04 01:22:06;;;;;;;3.70;3.03;;;;;;;16.40;47.35;100165.56;5044905;28;20060;-61
2022/06/04 01:25:05;;;;;;;6.15;2.80;;;;;;;16.31;47.23;100171.56;5052213;28;20049;-62
2022/06/04 01:27:43;;;;;;;4.43;2.88;;;;;;;16.27;47.43;100165.66;5052108;28;20050;-64
2022/06/04 01:30:27;;;;;;;3.63;2.60;;;;;;;16.24;47.25;100168.53;5050540;28;20048;-62
2022/06/04 01:33:11;;;;;;;4.22;3.13;;;;;;;16.20;47.46;100169.72;5050569;28;20056;-62
2022/06/04 01:35:47;;;;;;;4.32;2.85;;;;;;;16.12;47.86;100175.59;5051913;28;20049;-62
2022/06/04 01:38:24;;;;;;;4.95;3.00;;;;;;;16.06;48.04;100176.03;5050122;28;20103;-61
2022/06/04 01:41:03;;;;;;;4.40;2.70;;;;;;;16.03;48.19;100185.06;5050113;28;20046;-62
2022/06/04 01:43:37;;;;;;;5.97;3.03;;;;;;;16.01;48.26;100185.19;5051891;28;20041;-60
2022/06/04 01:46:12;;;;;;;4.05;2.72;;;;;;;15.98;48.30;100187.22;5051977;28;20112;-61
2022/06/04 01:48:42;;;;;;;9.82;3.80;;;;;;;15.97;48.17;100193.50;5050384;28;20433;-63
2022/06/04 01:51:11;;;;;;;3.42;2.85;;;;;;;15.96;47.79;100202.44;5050259;28;20061;-62
2022/06/04 01:53:41;;;;;;;5.70;3.17;;;;;;;15.94;48.41;100194.59;5051973;28;20065;-61
2022/06/04 01:56:13;;;;;;;5.53;2.88;;;;;;;15.92;48.69;100191.13;5051343;28;20052;-61
2022/06/04 01:58:46;;;;;;;3.90;2.88;;;;;;;15.91;49.03;100192.09;5051491;28;20053;-62
2022/06/04 02:01:18;;;;;;;6.05;3.20;;;;;;;15.90;48.84;100185.94;5051100;28;20417;-63
2022/06/04 02:03:47;;;;;;;6.35;2.95;;;;;;;15.91;48.48;100186.78;5050033;28;20049;-62
2022/06/04 02:06:19;;;;;;;4.68;3.03;;;;;;;15.88;49.04;100195.84;5051385;28;20079;-63
2022/06/04 02:08:55;;;;;;;5.38;3.22;;;;;;;15.86;49.33;100203.03;5051429;28;20273;-62
2022/06/04 02:11:24;;;;;;;4.63;2.80;;;;;;;15.88;48.97;100210.91;5049694;28;20091;-62
2022/06/04 02:13:57;;;;;;;3.95;2.88;;;;;;;15.87;49.39;100210.06;5049757;28;20052;-63
2022/06/04 02:16:30;;;;;;;5.63;3.40;;;;;;;15.88;48.72;100205.59;5051305;28;20053;-63
2022/06/04 02:18:58;;;;;;;4.78;3.35;;;;;;;15.89;48.97;100212.63;5049801;28;20085;-62
2022/06/04 02:21:27;;;;;;;6.10;3.17;;;;;;;15.90;49.03;100214.31;5049538;28;20591;-64
2022/06/04 02:23:55;;;;;;;4.45;3.25;;;;;;;15.89;49.23;100223.25;5049631;28;20735;-61
2022/06/04 02:26:24;;;;;;;4.75;2.92;;;;;;;15.89;49.19;100216.09;5049557;28;20063;-61
2022/06/04 02:28:52;;;;;;;4.10;3.08;;;;;;;15.92;49.18;100216.84;5049803;28;20460;-60
2022/06/04 02:31:37;;;;;;;5.78;3.35;;;;;;;15.90;49.14;100222.28;5050742;28;20052;-61
2022/06/04 02:34:27;;;;;;;6.53;3.60;;;;;;;15.85;49.61;100213.81;5050831;28;20048;-63
2022/06/04 02:37:18;;;;;;;4.65;3.53;;;;;;;15.83;49.51;100208.59;5050671;28;20045;-63
2022/06/04 02:40:10;;;;;;;5.95;3.42;;;;;;;15.81;49.39;100209.66;5050805;28;20057;-63
2022/06/04 02:42:54;;;;;;;7.00;3.25;;;;;;;15.79;49.85;100212.44;5050725;28;20056;-61
2022/06/04 02:45:33;;;;;;;4.88;3.55;;;;;;;15.79;49.89;100211.56;5049554;28;20048;-61
2022/06/04 02:48:04;;;;;;;3.53;3.22;;;;;;;15.76;49.83;100218.81;5050780;28;20061;-63
2022/06/04 02:50:56;;;;;;;6.10;3.47;;;;;;;15.70;49.70;100199.81;5050513;28;20072;-62
2022/06/04 02:53:26;;;;;;;5.53;3.10;;;;;;;15.70;49.59;100198.00;5049171;28;20056;-61
2022/06/04 02:56:01;;;;;;;4.90;3.35;;;;;;;15.65;50.03;100197.50;5049224;28;20049;-61
2022/06/04 02:58:30;;;;;;;5.82;3.65;;;;;;;15.63;49.86;100191.47;5049166;28;20049;-62
2022/06/04 03:00:58;;;;;;;7.38;3.67;;;;;;;15.60;50.02;100186.34;5050355;28;20053;-63
2022/06/04 03:03:26;;;;;;;4.45;3.53;;;;;;;15.56;49.91;100185.75;5049214;28;20087;-61
2022/06/04 03:05:59;;;;;;;5.13;3.40;;;;;;;15.51;50.72;100187.84;5049091;28;20053;-62
2022/06/04 03:08:28;;;;;;;5.10;3.35;;;;;;;15.49;50.33;100182.69;5050706;28;20053;-63
2022/06/04 03:10:55;;;;;;;4.03;3.53;;;;;;;15.46;50.02;100182.88;5049093;28;20089;-61
2022/06/04 03:13:21;;;;;;;6.47;3.60;;;;;;;15.44;50.31;100187.44;5050474;28;20061;-63
2022/06/04 03:15:48;;;;;;;5.55;3.92;;;;;;;15.43;50.42;100192.84;5050253;28;20106;-62
2022/06/04 03:18:16;;;;;;;4.32;3.72;;;;;;;15.41;50.44;100192.13;5050229;28;20051;-63
2022/06/04 03:20:43;;;;;;;5.47;3.80;;;;;;;15.39;50.37;100191.41;5050279;28;20057;-64
2022/06/04 03:23:14;;;;;;;5.43;3.85;;;;;;;15.35;50.45;100190.75;5050463;28;20492;-61
2022/06/04 03:25:40;;;;;;;5.47;3.83;;;;;;;15.33;50.53;100187.38;5050420;28;20073;-62
2022/06/04 03:28:07;;;;;;;4.55;3.70;;;;;;;15.30;50.77;100184.91;5050361;28;20098;-62
2022/06/04 03:30:35;;;;;;;6.05;3.70;;;;;;;15.28;50.70;100192.16;5049936;28;20049;-62
2022/06/04 03:33:03;;;;;;;6.28;4.10;;;;;;;15.26;50.98;100180.78;5050077;28;20053;-61
2022/06/04 03:35:29;;;;;;;5.43;4.03;;;;;;;15.24;51.00;100180.88;5048818;28;20045;-61
2022/06/04 03:37:56;;;;;;;5.25;4.07;;;;;;;15.24;50.99;100183.53;5050262;28;20053;-62
2022/06/04 03:40:23;;;;;;;4.63;3.92;;;;;;;15.23;50.93;100182.72;5049901;28;20053;-61
2022/06/04 03:42:49;;;;;;;5.00;4.07;;;;;;;15.21;51.11;100181.94;5050165;28;20412;-62
2022/06/04 03:45:16;;;;;;;6.38;3.85;;;;;;;15.20;51.32;100185.56;5050031;28;20114;-60
2022/06/04 03:47:43;;;;;;;7.43;4.00;;;;;;;15.20;51.40;100182.06;5050297;28;20688;-62
2022/06/04 03:50:12;;;;;;;5.68;4.63;;;;;;;15.18;51.75;100187.47;5049987;28;20057;-63
2022/06/04 03:52:40;;;;;;;8.25;4.25;;;;;;;15.18;51.28;100178.69;5049972;28;20049;-64
2022/06/04 03:55:07;;;;;;;6.68;4.20;;;;;;;15.17;51.60;100185.78;5048629;28;20052;-60
2022/06/04 03:57:41;;;;;;;6.57;4.15;;;;;;;15.16;51.68;100189.38;5048748;28;20052;-62
2022/06/04 04:00:27;;;;;;;10.10;4.47;;;;;;;15.16;52.31;100188.53;5049559;28;20053;-61
2022/06/04 04:02:58;;;;;;;5.88;4.63;;;;;;;15.16;51.48;100178.78;5050689;28;20556;-62
2022/06/04 04:05:29;;;;;;;7.07;4.32;;;;;;;15.14;52.39;100191.28;5052431;28;20095;-62
2022/06/04 04:07:57;;;;;;;7.28;4.78;;;;;;;15.15;51.84;100186.84;5052470;28;20068;-63
2022/06/04 04:10:26;;;;;;;11.40;4.53;;;;;;;15.13;52.47;100175.50;5053354;28;20493;-63
2022/06/04 04:12:53;;;;;;;9.32;4.88;;;;;;;15.13;51.91;100186.94;5052349;28;20072;-61
2022/06/04 04:15:20;;;;;;;5.88;4.47;;;;;;;15.10;52.09;100195.97;5053253;28;20045;-62
2022/06/04 04:17:47;;;;;;;7.10;4.80;;;;;;;15.08;52.16;100200.53;5052355;28;20409;-61
2022/06/04 04:20:20;;;;;;;6.30;5.00;;;;;;;15.06;52.42;100199.78;5053070;28;20107;-63
2022/06/04 04:22:47;;;;;;;;;;;;;;;15.07;51.24;100208.59;5052449;28;20052;-61
2022/06/04 04:25:17;;;;;;;9.45;4.18;;;;;;;15.11;52.28;100215.38;5053447;28;19974;-62
2022/06/04 04:27:44;;;;;;;9.30;4.80;;;;;;;15.11;52.05;100208.25;5052038;28;20045;-63
2022/06/04 04:30:14;;;;;;;8.65;4.82;;;;;;;15.10;52.49;100209.22;5053014;28;20060;-62
2022/06/04 04:32:41;;;;;;;7.90;4.95;;;;;;;15.13;52.44;100197.53;5051877;28;20055;-61
2022/06/04 04:35:16;;;;;;;8.65;5.20;;;;;;;15.11;52.91;100192.34;5051821;28;20049;-62
2022/06/04 04:37:43;;;;;;;6.25;5.07;;;;;;;15.15;52.47;100194.78;5051770;28;20053;-62
2022/06/04 04:40:15;;;;;;;6.40;5.20;;;;;;;15.13;53.57;100197.53;5052974;28;20052;-61
2022/06/04 04:42:43;;;;;;;11.50;5.18;;;;;;;15.18;52.62;100206.03;5051735;28;20048;-61
2022/06/04 04:45:11;;;;;;;9.10;5.57;;;;;;;15.21;52.89;100197.88;5051566;28;20098;-61
2022/06/04 04:47:40;;;;;;;7.10;5.10;;;;;;;15.24;53.21;100205.63;5051476;28;20056;-62
2022/06/04 04:50:16;;;;;;;9.13;5.22;;;;;;;15.29;53.55;100215.88;5051203;28;20053;-64
2022/06/04 04:52:42;;;;;;;6.57;4.88;;;;;;;15.34;52.76;100212.94;5051676;28;20052;-65
2022/06/04 04:55:09;;;;;;;8.48;5.22;;;;;;;15.37;52.83;100218.84;5052504;28;20110;-61
2022/06/04 04:57:36;;;;;;;15.13;5.28;;;;;;;15.40;52.89;100212.47;5052670;28;20052;-61
2022/06/04 05:00:06;;;;;;;8.02;4.93;;;;;;;15.43;53.19;100206.09;5052740;28;20060;-61
2022/06/04 05:02:34;;;;;;;8.80;5.32;;;;;;;15.47;52.80;100197.84;5052534;28;20056;-62
2022/06/04 05:05:01;;;;;;;6.68;4.88;;;;;;;15.52;53.13;100210.78;5051411;28;20509;-63
2022/06/04 05:07:27;;;;;;;7.00;5.25;;;;;;;15.57;52.99;100218.41;5052318;28;20534;-62
2022/06/04 05:09:54;;;;;;;9.15;5.25;;;;;;;15.61;52.98;100214.59;5052603;28;20459;-62
2022/06/04 05:12:20;;;;;;;8.25;5.57;;;;;;;15.68;53.09;100217.66;5052018;28;20048;-61
2022/06/04 05:14:47;;;;;;;8.98;5.18;;;;;;;15.72;52.91;100217.34;5051079;28;20061;-62
2022/06/04 05:17:13;;;;;;;5.72;4.72;;;;;;;15.77;52.82;100209.03;5050834;28;20118;-62
2022/06/04 05:19:40;;;;;;;11.00;5.68;;;;;;;15.82;52.82;100200.75;5051225;28;20414;-62
2022/06/04 05:22:07;;;;;;;12.52;5.80;;;;;;;15.84;52.63;100199.66;5051894;28;20550;-61
2022/06/04 05:24:36;;;;;;;7.72;5.15;;;;;;;15.88;53.07;100205.59;5052201;28;20045;-65
2022/06/04 05:27:04;;;;;;;7.85;5.88;;;;;;;15.92;52.71;100203.59;5050795;28;20053;-61
2022/06/04 05:29:31;;;;;;;9.73;5.55;;;;;;;15.95;52.74;100212.19;5052040;28;20060;-63
2022/06/04 05:31:59;;;;;;;9.73;5.25;;;;;;;15.98;52.60;100211.97;5051934;28;20049;-62
2022/06/04 05:34:26;;;;;;;9.05;5.57;;;;;;;16.00;52.62;100212.69;5052064;28;20520;-61
2022/06/04 05:36:54;;;;;;;8.32;4.95;;;;;;;16.02;52.74;100216.13;5051731;28;20473;-61
2022/06/04 05:39:22;;;;;;;6.95;5.38;;;;;;;16.05;52.85;100222.16;5051993;28;20049;-62
2022/06/04 05:41:49;;;;;;;7.32;5.15;;;;;;;16.10;52.87;100226.16;5050272;28;20048;-62
2022/06/04 05:44:17;;;;;;;6.68;5.40;;;;;;;16.16;52.79;100230.19;5050406;28;20460;-61
2022/06/04 05:46:44;;;;;;;7.25;5.50;;;;;;;16.22;52.69;100237.69;5050341;28;20044;-63
2022/06/04 05:49:16;;;;;;;6.82;4.93;;;;;;;16.27;52.58;100245.34;5050573;28;20132;-62
2022/06/04 05:51:44;;;;;;;7.00;5.15;;;;;;;16.32;52.72;100245.84;5051419;28;20057;-61
2022/06/04 05:54:11;;;;;;;8.32;5.20;;;;;;;16.37;52.38;100243.69;5050198;28;20056;-61
2022/06/04 05:56:40;;;;;;;7.38;5.45;;;;;;;16.44;52.38;100246.75;5051354;28;20451;-62
2022/06/04 05:59:10;;;;;;;10.63;5.38;;;;;;;16.49;52.68;100251.72;5050517;28;20080;-62
2022/06/04 06:01:38;;;;;;;7.22;5.85;;;;;;;16.54;52.45;100249.56;5050142;28;20115;-62
2022/06/04 06:04:08;;;;;;;7.15;5.28;;;;;;;16.59;52.39;100249.25;5050282;28;20090;-62
2022/06/04 06:06:38;;;;;;;8.50;5.45;;;;;;;16.64;52.27;100257.72;5051405;28;20049;-61
2022/06/04 06:09:09;;;;;;;6.93;5.30;;;;;;;16.68;52.22;100249.38;5050006;28;20048;-63
2022/06/04 06:11:37;;;;;;;6.90;4.47;;;;;;;16.72;52.26;100250.00;5049983;28;20136;-62
2022/06/04 06:14:03;;;;;;;7.50;5.32;;;;;;;16.77;52.09;100257.63;5050007;28;20053;-61
2022/06/04 06:16:31;;;;;;;10.20;5.30;;;;;;;16.82;52.20;100262.59;5050978;28;20532;-61
2022/06/04 06:18:59;;;;;;;8.15;5.50;;;;;;;16.86;51.82;100270.22;5049792;28;20413;-62
2022/06/04 06:21:30;;;;;;;7.68;5.00;;;;;;;16.90;52.05;100276.16;5050758;28;20080;-62
2022/06/04 06:23:58;;;;;;;6.65;4.72;;;;;;;16.96;51.89;100281.00;5049573;28;20608;-62
2022/06/04 06:26:29;;;;;;;6.90;4.72;;;;;;;17.01;52.14;100284.16;5049603;28;20452;-61
2022/06/04 06:28:59;;;;;;;9.13;5.32;;;;;;;17.08;51.41;100289.06;5051162;28;20049;-60
2022/06/04 06:31:28;;;;;;;8.13;4.85;;;;;;;17.13;51.44;100297.53;5050776;28;20040;-62
2022/06/04 06:33:55;;;;;;;9.98;4.78;;;;;;;17.18;51.51;100298.03;5050893;28;20414;-61
2022/06/04 06:36:22;;;;;;;7.38;5.13;;;;;;;17.23;51.78;100292.38;5050614;28;20080;-61
2022/06/04 06:38:49;;;;;;;7.25;4.60;;;;;;;17.28;51.79;100298.19;5051004;28;20052;-62
2022/06/04 06:41:18;;;;;;;7.78;4.57;;;;;;;17.34;51.41;100305.69;5050384;28;20102;-62
2022/06/04 06:43:50;;;;;;;6.28;4.70;;;;;;;17.41;51.46;100290.94;5049491;28;20111;-63
2022/06/04 06:46:21;;;;;;;8.60;4.25;;;;;;;17.50;51.20;100308.03;5049391;28;20489;-61
2022/06/04 06:48:49;;;;;;;5.68;4.55;;;;;;;17.57;51.19;100301.25;5050553;28;20107;-62
2022/06/04 06:51:27;;;;;;;4.93;4.22;;;;;;;17.63;50.80;100307.03;5049374;28;20056;-61
2022/06/04 06:53:55;;;;;;;6.05;5.00;;;;;;;17.74;50.82;100309.72;5049363;28;20060;-63
2022/06/04 06:56:26;;;;;;;6.75;4.47;;;;;;;17.80;50.79;100308.41;5050474;28;20383;-61
2022/06/04 06:58:53;;;;;;;4.97;4.25;;;;;;;17.88;50.82;100302.44;5050659;28;20056;-61
2022/06/04 07:01:21;;;;;;;7.35;4.55;;;;;;;17.96;50.72;100310.69;5048908;28;20056;-62
2022/06/04 07:03:50;;;;;;;7.82;4.38;;;;;;;18.03;50.41;100314.56;5049475;28;20041;-62
2022/06/04 07:06:29;;;;;;;17.48;4.72;;;;;;;18.08;50.40;100312.41;5049183;28;20110;-61
2022/06/04 07:08:56;;;;;;;22.30;5.35;;;;;;;18.20;50.11;100307.03;5050598;28;20063;-64
2022/06/04 07:11:23;;;;;;;8.55;4.88;;;;;;;18.29;49.99;100308.13;5050221;28;20053;-61
2022/06/04 07:13:49;;;;;;;5.90;3.92;;;;;;;18.36;50.05;100301.34;5050235;28;20122;-61
2022/06/04 07:16:16;;;;;;;8.55;4.68;;;;;;;18.44;49.79;100298.03;5050528;28;20064;-61
2022/06/04 07:18:42;;;;;;;6.90;4.25;;;;;;;18.51;49.48;100296.56;5050553;28;20122;-61
2022/06/04 07:21:09;;;;;;;6.07;4.43;;;;;;;18.58;49.37;100303.06;5049967;28;20551;-62
2022/06/04 07:23:37;;;;;;;7.18;4.75;;;;;;;18.64;49.34;100304.41;5050434;28;20099;-62
2022/06/04 07:26:04;;;;;;;5.68;4.30;;;;;;;18.72;49.68;100301.09;5050274;28;20064;-62
2022/06/04 07:28:32;;;;;;;6.57;4.80;;;;;;;18.83;49.46;100297.53;5048979;28;20048;-61
2022/06/04 07:30:59;;;;;;;6.47;4.47;;;;;;;18.93;49.51;100297.59;5050315;28;20398;-61
2022/06/04 07:33:27;;;;;;;8.52;4.80;;;;;;;19.02;49.38;100296.84;5050279;28;20071;-61
2022/06/04 07:35:54;;;;;;;8.18;4.57;;;;;;;19.12;49.32;100303.13;5050087;28;20052;-61
2022/06/04 07:38:21;;;;;;;5.25;4.25;;;;;;;19.23;48.71;100294.22;5051567;28;20485;-62
2022/06/04 07:40:47;;;;;;;9.95;4.60;;;;;;;19.30;48.47;100289.19;5053862;28;20775;-61
2022/06/04 07:43:14;;;;;;;7.82;4.57;;;;;;;19.37;48.04;100289.50;5053138;28;20053;-62
2022/06/04 07:45:41;;;;;;;4.45;3.83;;;;;;;19.43;48.60;100288.97;5054136;28;20053;-62
2022/06/04 07:48:08;;;;;;;4.93;4.38;;;;;;;19.48;48.25;100294.75;5054163;28;20497;-62
2022/06/04 07:50:35;;;;;;;5.28;4.40;;;;;;;19.53;48.12;100294.38;5053637;28;20045;-63
2022/06/04 07:53:02;;;;;;;6.45;4.43;;;;;;;19.57;48.06;100301.13;5052752;28;20052;-63
2022/06/04 07:55:29;;;;;;;12.05;4.90;;;;;;;19.63;48.30;100300.59;5053651;28;20057;-63
2022/06/04 07:57:56;;;;;;;7.18;4.53;;;;;;;19.69;48.17;100306.41;5052685;28;20053;-61
2022/06/04 08:00:24;;;;;;;5.90;4.30;;;;;;;19.74;48.18;100306.84;5053750;28;20062;-61
2022/06/04 08:02:53;;;;;;;6.00;4.57;;;;;;;19.79;47.84;100315.28;5052363;28;20052;-62
2022/06/04 08:05:23;;;;;;;5.35;4.30;;;;;;;19.87;47.89;100312.81;5053784;28;20075;-62
2022/06/04 08:07:51;;;;;;;5.82;4.88;;;;;;;19.96;47.85;100316.47;5053466;28;20463;-62
2022/06/04 08:10:17;;;;;;;6.00;4.78;;;;;;;20.04;48.38;100314.00;5052281;28;20137;-61
2022/06/04 08:12:51;;;;;;;7.43;5.07;;;;;;;20.15;48.34;100310.38;5053445;28;20774;-62
2022/06/04 08:15:18;;;;;;;8.98;4.95;;;;;;;20.26;48.33;100313.94;5053350;28;20041;-62
2022/06/04 08:17:47;;;;;;;9.07;4.95;;;;;;;20.36;48.59;100314.78;5053295;28;20783;-62
2022/06/04 08:20:14;;;;;;;11.35;4.70;;;;;;;20.51;48.00;100315.25;5051883;28;20053;-61
2022/06/04 08:22:41;;;;;;;7.60;5.05;;;;;;;20.65;47.54;100311.31;5051878;28;20049;-62
2022/06/04 08:25:07;;;;;;;21.85;5.20;;;;;;;20.79;47.60;100309.22;5053394;28;20123;-64
2022/06/04 08:27:34;;;;;;;6.88;4.85;;;;;;;20.92;48.16;100312.47;5053471;28;20057;-61
2022/06/04 08:30:02;;;;;;;6.85;5.00;;;;;;;21.06;47.30;100313.88;5053289;28;20052;-61
2022/06/04 08:32:28;;;;;;;9.10;4.55;;;;;;;21.20;46.92;100317.09;5051589;28;20052;-61
2022/06/04 08:34:55;;;;;;;6.28;4.93;;;;;;;21.32;46.85;100320.44;5051826;28;20064;-62
2022/06/04 08:37:21;;;;;;;7.00;4.43;;;;;;;21.44;46.46;100326.47;5052642;28;20413;-63
2022/06/04 08:39:48;;;;;;;5.13;4.47;;;;;;;21.54;46.21;100326.47;5052881;28;20049;-61
2022/06/04 08:42:55;;;;;;;8.52;4.78;;;;;;;21.61;45.79;100324.91;5052730;28;20049;-62
2022/06/04 08:45:22;;;;;;;5.15;3.75;;;;;;;21.79;45.73;100321.47;5052829;28;20126;-61
2022/06/04 08:47:51;;;;;;;5.40;3.92;;;;;;;21.87;45.23;100322.41;5052944;28;20044;-62
2022/06/04 08:50:21;;;;;;;6.47;4.25;;;;;;;21.96;45.48;100328.72;5052792;28;20524;-62
2022/06/04 08:52:52;;;;;;;4.65;3.75;;;;;;;22.03;45.12;100330.81;5052739;28;20056;-62
2022/06/04 08:58:49;;;;;;;5.27;3.70;;;;;;;22.14;44.04;100338.66;5052639;28;20660;-62
2022/06/04 09:01:35;;;;;;;6.47;3.88;;;;;;;22.21;43.74;100341.59;5052437;28;20283;-61
2022/06/04 09:04:45;;;;;;;5.50;4.13;;;;;;;22.25;43.82;100342.97;5052452;28;20559;-62
2022/06/04 09:07:21;;;;;;;4.95;3.47;;;;;;;22.33;44.30;100336.84;5052546;28;20068;-62
2022/06/04 09:10:13;;;;;;;6.75;4.07;;;;;;;22.37;44.10;100344.47;5051331;28;20148;-64
2022/06/04 09:12:55;;;;;;;5.68;3.65;;;;;;;22.45;44.11;100357.13;5051062;28;20072;-62
2022/06/04 09:15:24;;;;;;;5.00;3.42;;;;;;;22.58;44.61;100355.94;5051196;28;20049;-63
2022/06/04 09:17:53;;;;;;;4.43;3.30;;;;;;;22.67;43.88;100349.66;5050972;28;20056;-63
2022/06/04 09:20:27;;;;;;;7.38;3.40;;;;;;;22.75;43.54;100346.19;5050747;28;20179;-61
2022/06/04 09:23:04;;;;;;;4.80;3.70;;;;;;;22.85;43.61;100349.69;5050823;28;20671;-61
2022/06/04 09:25:42;;;;;;;6.65;3.20;;;;;;;22.92;43.18;100344.53;5052600;28;20060;-62
2022/06/04 09:28:29;;;;;;;5.10;3.88;;;;;;;23.01;43.25;100343.59;5052176;28;20053;-62
2022/06/04 09:31:08;;;;;;;4.60;3.63;;;;;;;23.14;43.02;100343.19;5050666;28;20049;-62
2022/06/04 09:33:51;;;;;;;7.25;3.72;;;;;;;23.21;42.57;100350.63;5050694;28;20067;-62
2022/06/04 09:36:22;;;;;;;4.07;3.50;;;;;;;23.33;43.06;100345.84;5050777;28;20045;-61
2022/06/04 09:38:56;;;;;;;4.75;3.83;;;;;;;23.38;42.68;100349.78;5051963;28;20052;-62
2022/06/04 09:41:25;;;;;;;4.35;3.22;;;;;;;23.49;42.69;100353.22;5050449;28;20413;-62
2022/06/04 09:44:26;;;;;;;5.05;3.28;;;;;;;23.54;42.64;100351.72;5050342;28;20400;-61
2022/06/04 09:47:05;;;;;;;3.92;3.42;;;;;;;23.64;42.33;100350.78;5008579;28;20049;-63
2022/06/04 09:49:38;;;;;;;21.02;4.22;;;;;;;23.74;42.09;100350.69;5051698;28;20053;-62
2022/06/04 09:52:26;;;;;;;5.50;3.65;;;;;;;23.79;41.93;100354.56;5050139;28;20057;-63
2022/06/04 09:54:57;;;;;;;5.90;3.83;;;;;;;23.90;42.56;100340.00;5050397;28;20049;-61
2022/06/04 09:57:35;;;;;;;3.97;3.45;;;;;;;23.95;42.14;100347.56;5050103;28;20053;-63
2022/06/04 10:00:18;;;;;;;3.83;3.20;;;;;;;24.03;41.99;100344.09;5050961;28;20455;-61
2022/06/04 10:03:10;;;;;;;6.05;3.10;;;;;;;24.10;41.84;100353.22;5051321;28;20433;-62
2022/06/04 10:05:40;;;;;;;7.20;3.47;;;;;;;24.24;41.57;100346.38;5051365;28;20091;-61
2022/06/04 10:08:13;;;;;;;4.07;3.05;;;;;;;24.31;41.54;100350.13;5051347;28;20076;-61
2022/06/04 10:10:43;;;;;;;8.77;3.10;;;;;;;24.42;41.43;100351.66;5049748;28;20052;-63
2022/06/04 10:16:24;;;;;;;3.78;2.80;;;;;;;24.65;42.16;100351.03;5051235;28;20401;-62
2022/06/04 10:19:00;;;;;;;5.28;2.88;;;;;;;24.88;41.83;100352.25;5050083;28;20147;-63
2022/06/04 10:21:36;;;;;;;3.40;2.97;;;;;;;25.07;41.35;100346.53;5049636;28;20045;-62
2022/06/04 10:24:31;;;;;;;3.53;3.10;;;;;;;25.29;41.61;100343.31;5049802;28;20505;-61
2022/06/04 10:27:19;;;;;;;6.00;2.88;;;;;;;25.54;40.34;100337.91;5049886;28;20056;-62
2022/06/04 10:30:12;;;;;;;4.57;2.80;;;;;;;25.69;39.37;100338.06;5051028;28;20045;-61
2022/06/04 10:32:45;;;;;;;5.55;2.58;;;;;;;25.86;39.03;100345.09;5050950;28;20053;-63
2022/06/04 10:35:52;;;;;;;7.82;2.90;;;;;;;25.97;39.21;100340.31;5049762;28;20118;-63
2022/06/04 10:38:38;;;;;;;4.75;2.72;;;;;;;26.10;38.97;100340.63;5050886;28;20063;-62
2022/06/04 10:41:31;;;;;;;3.45;2.33;;;;;;;26.17;39.01;100345.28;5050887;28;20057;-62
2022/06/04 10:44:19;;;;;;;5.13;2.72;;;;;;;26.25;38.46;100348.81;5049583;28;20057;-64
2022/06/04 10:47:06;;;;;;;4.03;2.60;;;;;;;26.33;38.56;100333.59;5051081;28;20049;-62
2022/06/04 10:49:48;;;;;;;2.92;2.30;;;;;;;26.44;38.28;100351.25;5050763;28;20060;-62
2022/06/04 10:52:38;;;;;;;9.68;3.05;;;;;;;26.45;37.39;100352.94;5050480;28;20382;-63
2022/06/04 10:55:20;;;;;;;6.30;2.70;;;;;;;26.49;38.07;100347.00;5050790;28;20053;-61
2022/06/04 10:58:26;;;;;;;6.00;2.80;;;;;;;26.54;37.86;100349.19;5050646;28;20060;-62
2022/06/04 11:01:10;;;;;;;3.90;2.72;;;;;;;26.60;38.01;100353.84;5050327;28;20052;-62
2022/06/04 11:03:47;;;;;;;4.15;2.78;;;;;;;26.68;37.46;100347.56;5050475;28;20056;-63
2022/06/04 11:06:24;;;;;;;4.40;2.72;;;;;;;26.74;37.12;100352.25;5050857;28;20412;-63
2022/06/04 11:08:59;;;;;;;7.60;2.72;;;;;;;26.79;37.41;100336.34;5049222;28;20106;-62
2022/06/04 11:11:38;;;;;;;3.28;2.17;;;;;;;26.90;37.32;100339.63;5050246;28;20048;-62
2022/06/04 11:14:13;;;;;;;4.03;2.58;;;;;;;27.02;37.12;100350.91;5053265;28;20056;-63
2022/06/04 11:16:42;;;;;;;3.88;2.03;;;;;;;27.19;37.07;100349.72;5053315;28;20045;-62
2022/06/04 11:19:12;;;;;;;3.35;2.10;;;;;;;27.34;36.86;100348.06;5054533;28;20390;-63
2022/06/04 11:22:01;;;;;;;3.97;2.17;;;;;;;27.48;37.67;100341.00;5052959;28;20106;-62
2022/06/04 11:24:54;;;;;;;2.88;2.33;;;;;;;27.66;36.84;100338.78;5054521;28;20053;-62
2022/06/04 11:27:33;;;;;;;3.42;2.50;;;;;;;27.81;36.41;100346.09;5054510;28;20114;-62
2022/06/04 11:30:05;;;;;;;5.68;2.72;;;;;;;27.91;35.51;100348.47;5053037;28;20060;-61
2022/06/04 11:32:43;;;;;;;3.20;2.40;;;;;;;27.92;35.44;100348.31;5053173;28;20064;-61
2022/06/04 11:35:38;;;;;;;5.45;2.63;;;;;;;27.89;35.79;100346.00;5053113;28;20059;-62
2022/06/04 11:38:17;;;;;;;3.72;2.50;;;;;;;27.87;35.57;100344.47;5054289;28;20396;-61
2022/06/04 11:40:52;;;;;;;4.40;2.65;;;;;;;27.84;35.38;100340.28;5052867;28;20087;-64
2022/06/04 11:44:01;;;;;;;4.00;2.40;;;;;;;27.80;35.42;100341.69;5052934;28;20551;-62
2022/06/04 11:46:46;;;;;;;3.28;2.47;;;;;;;27.73;35.80;100346.19;4972714;28;20042;-61
2022/06/04 11:49:40;;;;;;;4.00;2.67;;;;;;;27.72;36.09;100339.09;4956473;28;20050;-62
2022/06/04 11:52:19;;;;;;;5.45;2.63;;;;;;;27.78;35.31;100341.03;5032458;28;20060;-61
2022/06/04 11:55:21;;;;;;;3.75;2.97;;;;;;;27.72;35.56;100352.63;5053973;28;20052;-63
2022/06/04 11:58:00;;;;;;;8.02;2.78;;;;;;;27.74;35.14;100347.84;5054005;28;20049;-61
2022/06/04 12:00:31;;;;;;;4.78;3.05;;;;;;;27.70;34.82;100347.41;5053657;28;20053;-63
2022/06/04 12:03:12;;;;;;;3.15;2.85;;;;;;;27.65;35.28;100347.94;5052582;28;20653;-63
2022/06/04 12:06:16;;;;;;;5.07;3.08;;;;;;;27.62;36.01;100351.00;5053551;28;20103;-62